createdAt,value
2022-10-14T00:01:57.006Z,12.68
2022-10-14T00:04:24.457Z,12.65
2022-10-14T00:06:50.880Z,12.66
2022-10-14T00:09:17.304Z,12.66
2022-10-14T00:11:43.799Z,12.66
2022-10-14T00:14:16.414Z,12.66
2022-10-14T00:16:47.197Z,12.66
2022-10-14T00:19:14.267Z,12.64
2022-10-14T00:21:43.219Z,12.62
2022-10-14T00:24:11.479Z,12.62
2022-10-14T00:26:39.059Z,12.60
2022-10-14T00:29:08.252Z,12.58
2022-10-14T00:31:35.340Z,12.57
2022-10-14T00:34:01.811Z,12.57
2022-10-14T00:36:28.488Z,12.58
2022-10-14T00:38:55.246Z,12.57
2022-10-14T00:41:30.429Z,12.58
2022-10-14T00:44:01.307Z,12.58
2022-10-14T00:46:38.804Z,12.58
2022-10-14T00:49:36.143Z,12.59
2022-10-14T00:52:13.886Z,12.58
2022-10-14T00:55:01.376Z,12.59
2022-10-14T00:57:28.350Z,12.59
2022-10-14T00:59:56.838Z,12.59
2022-10-14T01:02:23.275Z,12.60
2022-10-14T01:04:49.712Z,12.60
2022-10-14T01:07:34.774Z,12.60
2022-10-14T01:10:07.228Z,12.60
2022-10-14T01:12:45.590Z,12.62
2022-10-14T01:15:38.405Z,12.63
2022-10-14T01:18:23.296Z,12.63
2022-10-14T01:20:57.823Z,12.65
2022-10-14T01:23:39.545Z,12.65
2022-10-14T01:26:24.794Z,12.67
2022-10-14T01:29:17.388Z,12.66
2022-10-14T01:32:04.344Z,12.65
2022-10-14T01:34:36.264Z,12.65
2022-10-14T01:37:07.092Z,12.65
2022-10-14T01:39:39.441Z,12.65
2022-10-14T01:42:10.114Z,12.64
2022-10-14T01:44:39.030Z,12.65
2022-10-14T01:47:06.642Z,12.63
2022-10-14T01:49:36.971Z,12.62
2022-10-14T01:52:10.147Z,12.62
2022-10-14T01:54:40.896Z,12.62
2022-10-14T01:57:14.332Z,12.61
2022-10-14T01:59:41.239Z,12.61
2022-10-14T02:02:07.740Z,12.61
2022-10-14T02:04:34.175Z,12.61
2022-10-14T02:07:25.356Z,12.60
2022-10-14T02:10:22.696Z,12.60
2022-10-14T02:13:10.830Z,12.60
2022-10-14T02:16:10.886Z,12.59
2022-10-14T02:18:51.636Z,12.60
2022-10-14T02:21:25.784Z,12.58
2022-10-14T02:24:00.887Z,12.60
2022-10-14T02:26:28.071Z,12.60
2022-10-14T02:28:55.578Z,12.59
2022-10-14T02:31:23.070Z,12.61
2022-10-14T02:33:52.160Z,12.61
2022-10-14T02:36:20.684Z,12.61
2022-10-14T02:38:48.350Z,12.61
2022-10-14T02:41:17.591Z,12.61
2022-10-14T02:43:45.390Z,12.60
2022-10-14T02:46:11.817Z,12.61
2022-10-14T02:48:38.270Z,12.61
2022-10-14T02:51:04.786Z,12.62
2022-10-14T02:53:31.186Z,12.63
2022-10-14T02:55:57.591Z,12.65
2022-10-14T02:58:24.072Z,12.65
2022-10-14T03:00:50.496Z,12.66
2022-10-14T03:03:16.952Z,12.67
2022-10-14T03:05:43.416Z,12.68
2022-10-14T03:08:10.881Z,12.68
2022-10-14T03:10:37.298Z,12.67
2022-10-14T03:13:04.085Z,12.68
2022-10-14T03:15:30.505Z,12.66
2022-10-14T03:17:56.961Z,12.66
2022-10-14T03:20:23.529Z,12.65
2022-10-14T03:22:49.986Z,12.65
2022-10-14T03:25:17.411Z,12.64
2022-10-14T03:27:43.870Z,12.62
2022-10-14T03:30:10.605Z,12.60
2022-10-14T03:32:37.051Z,12.60
2022-10-14T03:35:03.605Z,12.59
2022-10-14T03:37:30.015Z,12.60
2022-10-14T03:39:56.444Z,12.58
2022-10-14T03:42:23.001Z,12.59
2022-10-14T03:44:49.715Z,12.60
2022-10-14T03:47:16.213Z,12.60
2022-10-14T03:49:42.628Z,12.60
2022-10-14T03:52:09.101Z,12.60
2022-10-14T03:54:36.397Z,12.61
2022-10-14T03:57:02.820Z,12.63
2022-10-14T03:59:29.229Z,12.64
2022-10-14T04:01:55.693Z,12.66
2022-10-14T04:04:22.156Z,12.66
2022-10-14T04:06:48.582Z,12.69
2022-10-14T04:09:15.046Z,12.69
2022-10-14T04:11:41.491Z,12.71
2022-10-14T04:14:08.410Z,12.70
2022-10-14T04:16:34.827Z,12.71
2022-10-14T04:19:01.241Z,12.70
2022-10-14T04:21:28.677Z,12.71
2022-10-14T04:23:55.083Z,12.71
2022-10-14T04:26:21.498Z,12.71
2022-10-14T04:28:48.012Z,12.70
2022-10-14T04:31:14.502Z,12.70
2022-10-14T04:33:40.946Z,12.68
2022-10-14T04:36:07.839Z,12.71
2022-10-14T04:38:34.258Z,12.70
2022-10-14T04:41:00.767Z,12.70
2022-10-14T04:43:27.196Z,12.71
2022-10-14T04:45:54.325Z,12.69
2022-10-14T04:48:20.898Z,12.70
2022-10-14T04:50:51.493Z,12.70
2022-10-14T04:53:21.900Z,12.68
2022-10-14T04:55:49.615Z,12.67
2022-10-14T04:58:16.844Z,12.66
2022-10-14T05:00:43.391Z,12.65
2022-10-14T05:03:09.813Z,12.62
2022-10-14T05:05:36.247Z,12.61
2022-10-14T05:08:02.851Z,12.60
2022-10-14T05:10:29.279Z,12.60
2022-10-14T05:12:55.827Z,12.59
2022-10-14T05:15:22.273Z,12.58
2022-10-14T05:17:48.696Z,12.59
2022-10-14T05:20:15.144Z,12.58
2022-10-14T05:22:44.443Z,12.58
2022-10-14T05:25:10.879Z,12.59
2022-10-14T05:27:37.290Z,12.61
2022-10-14T05:30:03.969Z,12.62
2022-10-14T05:32:30.390Z,12.63
2022-10-14T05:34:56.784Z,12.63
2022-10-14T05:37:23.218Z,12.65
2022-10-14T05:39:49.681Z,12.67
2022-10-14T05:42:16.111Z,12.68
2022-10-14T05:44:42.530Z,12.70
2022-10-14T05:47:10.299Z,12.71
2022-10-14T05:49:36.780Z,12.71
2022-10-14T05:52:03.324Z,12.72
2022-10-14T05:54:29.723Z,12.72
2022-10-14T05:56:56.817Z,12.73
2022-10-14T05:59:23.273Z,12.73
2022-10-14T06:01:49.947Z,12.75
2022-10-14T06:04:18.704Z,12.77
2022-10-14T06:06:45.313Z,12.77
2022-10-14T06:09:12.252Z,12.78
2022-10-14T06:11:39.018Z,12.78
2022-10-14T06:14:05.509Z,12.78
2022-10-14T06:16:32.116Z,12.79
2022-10-14T06:18:58.523Z,12.79
2022-10-14T06:21:25.129Z,12.80
2022-10-14T06:23:51.780Z,12.79
2022-10-14T06:26:18.286Z,12.80
2022-10-14T06:28:45.001Z,12.80
2022-10-14T06:31:11.484Z,12.82
2022-10-14T06:33:37.989Z,12.81
2022-10-14T06:36:05.781Z,12.82
2022-10-14T06:38:32.214Z,12.82
2022-10-14T06:40:58.683Z,12.82
2022-10-14T06:43:25.123Z,12.82
2022-10-14T06:45:52.699Z,12.82
2022-10-14T06:48:19.114Z,12.84
2022-10-14T06:50:45.523Z,12.84
2022-10-14T06:53:11.967Z,12.85
2022-10-14T06:55:38.390Z,12.86
2022-10-14T06:58:05.815Z,12.88
2022-10-14T07:00:32.586Z,12.92
2022-10-14T07:02:59.502Z,12.94
2022-10-14T07:05:26.605Z,12.96
2022-10-14T07:07:53.059Z,12.99
2022-10-14T07:10:19.518Z,13.02
2022-10-14T07:12:46.936Z,13.05
2022-10-14T07:15:13.354Z,13.11
2022-10-14T07:17:39.890Z,13.13
2022-10-14T07:20:06.932Z,13.18
2022-10-14T07:22:38.629Z,13.21
2022-10-14T07:25:06.113Z,13.26
2022-10-14T07:27:32.846Z,13.30
2022-10-14T07:29:59.292Z,13.34
2022-10-14T07:32:25.737Z,13.41
2022-10-14T07:34:52.180Z,13.45
2022-10-14T07:37:18.735Z,13.51
2022-10-14T07:39:45.166Z,13.57
2022-10-14T07:42:11.578Z,13.66
2022-10-14T07:44:39.787Z,13.70
2022-10-14T07:47:06.679Z,13.75
2022-10-14T07:49:33.139Z,13.80
2022-10-14T07:51:59.564Z,13.85
2022-10-14T07:54:29.431Z,13.92
2022-10-14T07:56:57.915Z,14.02
2022-10-14T07:59:24.917Z,14.06
2022-10-14T08:01:53.145Z,14.10
2022-10-14T08:04:19.919Z,14.16
2022-10-14T08:06:49.979Z,14.21
2022-10-14T08:09:17.036Z,14.26
2022-10-14T08:11:44.362Z,14.31
2022-10-14T08:14:10.826Z,14.36
2022-10-14T08:16:38.094Z,14.39
2022-10-14T08:19:14.221Z,14.43
2022-10-14T08:21:42.465Z,14.47
2022-10-14T08:24:09.498Z,14.51
2022-10-14T08:26:38.157Z,14.52
2022-10-14T08:29:06.755Z,14.54
2022-10-14T08:31:33.570Z,14.55
2022-10-14T08:34:00.101Z,14.56
2022-10-14T08:36:26.666Z,14.60
2022-10-14T08:38:54.204Z,14.62
2022-10-14T08:41:26.219Z,14.63
2022-10-14T08:44:06.070Z,14.68
2022-10-14T08:46:38.274Z,14.72
2022-10-14T08:49:17.290Z,14.79
2022-10-14T08:51:45.531Z,14.85
2022-10-14T08:54:27.969Z,14.88
2022-10-14T08:56:56.128Z,14.95
2022-10-14T08:59:22.762Z,15.00
2022-10-14T09:02:24.680Z,15.05
2022-10-14T09:04:51.171Z,15.06
2022-10-14T09:07:18.890Z,15.06
2022-10-14T09:09:49.829Z,15.07
2022-10-14T09:12:18.743Z,15.11
2022-10-14T09:14:48.571Z,15.16
2022-10-14T09:17:23.212Z,15.26
2022-10-14T09:20:22.562Z,15.40
2022-10-14T09:23:02.368Z,15.49
2022-10-14T09:25:31.174Z,15.58
2022-10-14T09:27:57.596Z,15.65
2022-10-14T09:30:24.008Z,15.69
2022-10-14T09:32:52.544Z,15.75
2022-10-14T09:35:32.938Z,15.78
2022-10-14T09:37:59.542Z,15.81
2022-10-14T09:40:35.084Z,15.84
2022-10-14T09:43:10.471Z,15.88
2022-10-14T09:45:59.239Z,15.91
2022-10-14T09:48:37.686Z,15.93
2022-10-14T09:51:30.422Z,15.98
2022-10-14T09:54:02.296Z,16.03
2022-10-14T09:56:30.545Z,16.12
2022-10-14T09:58:57.898Z,16.20
2022-10-14T10:01:29.257Z,16.27
2022-10-14T10:03:56.533Z,16.38
2022-10-14T10:06:25.819Z,16.44
2022-10-14T10:08:55.426Z,16.51
2022-10-14T10:11:35.557Z,16.56
2022-10-14T10:14:18.083Z,16.65
2022-10-14T10:16:44.655Z,16.71
2022-10-14T10:19:29.823Z,16.77
2022-10-14T10:25:14.626Z,16.87
2022-10-14T10:27:42.954Z,16.90
2022-10-14T10:30:18.710Z,16.95
2022-10-14T10:32:50.994Z,16.97
2022-10-14T10:35:52.049Z,16.96
2022-10-14T10:38:26.035Z,16.95
2022-10-14T10:41:19.595Z,16.96
2022-10-14T10:44:04.653Z,16.99
2022-10-14T10:46:40.395Z,17.00
2022-10-14T10:49:38.394Z,17.01
2022-10-14T10:52:18.816Z,17.02
2022-10-14T10:54:56.863Z,16.99
2022-10-14T10:57:41.797Z,17.06
2022-10-14T11:00:22.557Z,17.05
2022-10-14T11:02:58.045Z,17.09
2022-10-14T11:05:42.698Z,17.12
2022-10-14T11:08:43.467Z,17.13
2022-10-14T11:11:44.721Z,17.17
2022-10-14T11:14:30.162Z,17.18
2022-10-14T11:17:02.664Z,17.20
2022-10-14T11:20:14.603Z,17.21
2022-10-14T11:23:07.613Z,17.25
2022-10-14T11:25:40.133Z,17.31
2022-10-14T11:28:18.842Z,17.37
2022-10-14T11:30:57.398Z,17.43
2022-10-14T11:33:38.947Z,17.53
2022-10-14T11:36:15.556Z,17.60
2022-10-14T11:38:53.344Z,17.68
2022-10-14T11:41:41.174Z,17.79
2022-10-14T11:44:25.833Z,17.79
2022-10-14T11:46:54.582Z,17.75
2022-10-14T11:49:26.679Z,17.76
2022-10-14T11:51:57.074Z,17.79
2022-10-14T11:54:40.079Z,17.81
2022-10-14T11:57:18.225Z,17.86
2022-10-14T12:00:03.433Z,17.90
2022-10-14T12:02:57.833Z,17.95
2022-10-14T12:05:36.398Z,18.00
2022-10-14T12:08:09.970Z,18.09
2022-10-14T12:10:42.711Z,18.14
2022-10-14T12:13:14.154Z,18.28
2022-10-14T12:15:44.712Z,18.37
2022-10-14T12:18:11.602Z,18.42
2022-10-14T12:20:47.623Z,18.44
2022-10-14T12:23:34.401Z,18.44
2022-10-14T12:26:11.173Z,18.47
2022-10-14T12:28:38.197Z,18.44
2022-10-14T12:31:32.060Z,18.48
2022-10-14T12:34:10.643Z,18.53
2022-10-14T12:36:43.004Z,18.56
2022-10-14T12:39:19.459Z,18.61
2022-10-14T12:41:59.621Z,18.70
2022-10-14T12:44:43.439Z,18.75
2022-10-14T12:47:19.962Z,18.80
2022-10-14T12:49:52.116Z,18.77
2022-10-14T12:52:22.272Z,18.80
2022-10-14T12:54:49.374Z,18.81
2022-10-14T12:57:28.761Z,18.87
2022-10-14T12:59:57.908Z,18.92
2022-10-14T13:02:43.102Z,19.00
2022-10-14T13:05:23.019Z,19.07
2022-10-14T13:08:09.315Z,19.08
2022-10-14T13:10:44.926Z,19.06
2022-10-14T13:13:42.000Z,19.09
2022-10-14T13:16:09.911Z,19.12
2022-10-14T13:18:42.343Z,19.09
2022-10-14T13:21:10.617Z,19.11
2022-10-14T13:23:43.795Z,19.10
2022-10-14T13:26:30.493Z,19.11
2022-10-14T13:29:18.698Z,19.06
2022-10-14T13:32:12.579Z,19.09
2022-10-14T13:34:57.797Z,19.08
2022-10-14T13:37:28.315Z,19.10
2022-10-14T13:39:55.838Z,19.08
2022-10-14T13:42:26.855Z,19.04
2022-10-14T13:44:56.304Z,19.00
2022-10-14T13:47:23.410Z,18.97
2022-10-14T13:49:50.894Z,18.96
2022-10-14T13:52:25.870Z,18.94
2022-10-14T13:55:11.029Z,18.96
2022-10-14T13:58:07.842Z,18.96
2022-10-14T14:00:45.858Z,18.98
2022-10-14T14:03:37.134Z,18.97
2022-10-14T14:06:10.338Z,18.97
2022-10-14T14:08:45.297Z,18.97
2022-10-14T14:11:21.546Z,18.98
2022-10-14T14:14:01.396Z,18.99
2022-10-14T14:16:37.591Z,19.01
2022-10-14T14:19:08.691Z,18.98
2022-10-14T14:21:35.928Z,18.99
2022-10-14T14:24:02.374Z,18.95
2022-10-14T14:26:34.448Z,18.92
2022-10-14T14:29:05.054Z,18.89
2022-10-14T14:32:01.312Z,18.91
2022-10-14T14:34:19.743Z,18.92
2022-10-14T14:36:51.770Z,18.94
2022-10-14T14:39:25.145Z,18.93
2022-10-14T14:41:53.522Z,18.96
2022-10-14T14:44:26.759Z,18.94
2022-10-14T14:46:57.151Z,18.97
2022-10-14T14:49:28.482Z,18.97
2022-10-14T14:51:55.827Z,19.00
2022-10-14T14:54:23.074Z,19.03
2022-10-14T14:57:04.964Z,19.05
2022-10-14T14:59:43.704Z,19.04
2022-10-14T15:02:14.807Z,19.06
2022-10-14T15:04:41.424Z,19.07
2022-10-14T15:07:21.036Z,19.05
2022-10-14T15:09:52.042Z,19.07
2022-10-14T15:12:19.917Z,19.05
2022-10-14T15:14:50.221Z,19.02
2022-10-14T15:17:34.302Z,18.99
2022-10-14T15:20:30.222Z,18.95
2022-10-14T15:22:56.720Z,18.90
2022-10-14T15:25:25.253Z,18.84
2022-10-14T15:27:51.613Z,18.80
2022-10-14T15:30:35.677Z,18.73
2022-10-14T15:33:17.905Z,18.72
2022-10-14T15:35:45.977Z,18.69
2022-10-14T15:38:18.874Z,18.60
2022-10-14T15:40:47.297Z,18.59
2022-10-14T15:43:19.175Z,18.57
2022-10-14T15:46:07.878Z,18.53
2022-10-14T15:48:34.469Z,18.51
2022-10-14T15:51:00.881Z,18.45
2022-10-14T15:53:27.419Z,18.41
2022-10-14T15:55:53.862Z,18.40
2022-10-14T15:58:20.282Z,18.35
2022-10-14T16:00:47.274Z,18.32
2022-10-14T16:03:14.749Z,18.28
2022-10-14T16:05:41.161Z,18.25
2022-10-14T16:08:12.733Z,18.21
2022-10-14T16:10:39.475Z,18.18
2022-10-14T16:13:06.130Z,18.14
2022-10-14T16:15:40.566Z,18.09
2022-10-14T16:18:06.979Z,18.06
2022-10-14T16:20:33.461Z,18.02
2022-10-14T16:23:04.216Z,18.00
2022-10-14T16:25:39.744Z,17.97
2022-10-14T16:28:10.026Z,17.95
2022-10-14T16:30:39.630Z,17.93
2022-10-14T16:33:06.514Z,17.90
2022-10-14T16:35:33.302Z,17.87
2022-10-14T16:37:59.788Z,17.86
2022-10-14T16:40:26.243Z,17.86
2022-10-14T16:42:53.256Z,17.86
2022-10-14T16:45:19.673Z,17.84
2022-10-14T16:47:46.098Z,17.84
2022-10-14T16:50:12.701Z,17.83
2022-10-14T16:52:59.786Z,17.81
2022-10-14T16:55:30.158Z,17.80
2022-10-14T16:57:56.594Z,17.77
2022-10-14T17:00:23.033Z,17.77
2022-10-14T17:02:49.442Z,17.75
2022-10-14T17:05:16.135Z,17.74
2022-10-14T17:07:43.632Z,17.74
2022-10-14T17:10:10.712Z,17.72
2022-10-14T17:12:37.720Z,17.73
2022-10-14T17:15:04.520Z,17.70
2022-10-14T17:17:31.014Z,17.69
2022-10-14T17:19:57.478Z,17.67
2022-10-14T17:22:24.455Z,17.66
2022-10-14T17:24:51.169Z,17.66
2022-10-14T17:27:24.162Z,17.65
2022-10-14T17:29:50.849Z,17.64
2022-10-14T17:32:17.887Z,17.64
2022-10-14T17:34:44.459Z,17.63
2022-10-14T17:37:11.246Z,17.62
2022-10-14T17:39:37.846Z,17.61
2022-10-14T17:42:04.537Z,17.58
2022-10-14T17:44:30.993Z,17.55
2022-10-14T17:46:57.501Z,17.53
2022-10-14T17:49:24.038Z,17.52
2022-10-14T17:51:50.499Z,17.51
2022-10-14T17:54:17.003Z,17.49
2022-10-14T17:56:43.858Z,17.50
2022-10-14T17:59:14.212Z,17.50
2022-10-14T18:02:01.567Z,17.49
2022-10-14T18:04:27.383Z,17.49
2022-10-14T18:06:54.233Z,17.48
2022-10-14T18:09:21.199Z,17.48
2022-10-14T18:14:37.963Z,17.45
2022-10-14T18:17:05.289Z,17.43
2022-10-14T18:19:32.043Z,17.43
2022-10-14T18:21:58.632Z,17.42
2022-10-14T18:24:25.384Z,17.42
2022-10-14T18:26:52.587Z,17.40
2022-10-14T18:29:19.079Z,17.39
2022-10-14T18:31:45.670Z,17.40
2022-10-14T18:34:12.343Z,17.39
2022-10-14T18:36:38.950Z,17.39
2022-10-14T18:39:07.482Z,17.39
2022-10-14T18:41:34.770Z,17.36
2022-10-14T18:44:01.245Z,17.38
2022-10-14T18:46:33.284Z,17.38
2022-10-14T18:49:00.969Z,17.37
2022-10-14T18:51:29.871Z,17.37
2022-10-14T18:54:12.683Z,17.36
2022-10-14T18:56:39.252Z,17.35
2022-10-14T18:59:14.123Z,17.34
2022-10-14T19:01:41.407Z,17.33
2022-10-14T19:04:09.958Z,17.31
2022-10-14T19:06:36.766Z,17.31
2022-10-14T19:09:04.117Z,17.28
2022-10-14T19:11:32.377Z,17.27
2022-10-14T19:14:00.725Z,17.27
2022-10-14T19:16:29.089Z,17.28
2022-10-14T19:19:11.947Z,17.25
2022-10-14T19:21:38.973Z,17.26
2022-10-14T19:24:08.199Z,17.25
2022-10-14T19:26:35.973Z,17.24
2022-10-14T19:29:06.372Z,17.22
2022-10-14T19:31:36.384Z,17.21
2022-10-14T19:34:05.369Z,17.21
2022-10-14T19:36:38.105Z,17.18
2022-10-14T19:39:06.851Z,17.18
2022-10-14T19:41:38.489Z,17.15
2022-10-14T19:44:05.357Z,17.17
2022-10-14T19:46:32.112Z,17.18
2022-10-14T19:49:02.258Z,17.16
2022-10-14T19:51:29.134Z,17.16
2022-10-14T19:53:56.116Z,17.17
2022-10-14T19:56:23.554Z,17.17
2022-10-14T19:58:51.961Z,17.16
2022-10-14T20:01:19.374Z,17.17
2022-10-14T20:03:46.030Z,17.17
2022-10-14T20:06:13.428Z,17.17
2022-10-14T20:08:40.102Z,17.17
2022-10-14T20:11:09.201Z,17.16
2022-10-14T20:13:37.687Z,17.17
2022-10-14T20:16:06.080Z,17.16
2022-10-14T20:18:33.243Z,17.16
2022-10-14T20:21:01.574Z,17.15
2022-10-14T20:23:28.071Z,17.14
2022-10-14T20:26:02.054Z,17.13
2022-10-14T20:28:28.641Z,17.14
2022-10-14T20:30:55.392Z,17.12
2022-10-14T20:33:21.874Z,17.11
2022-10-14T20:35:48.406Z,17.12
2022-10-14T20:38:14.948Z,17.11
2022-10-14T20:40:41.486Z,17.10
2022-10-14T20:43:08.060Z,17.09
2022-10-14T20:45:34.657Z,17.10
2022-10-14T20:48:01.204Z,17.10
2022-10-14T20:50:27.756Z,17.09
2022-10-14T20:52:54.304Z,17.09
2022-10-14T20:55:20.905Z,17.09
2022-10-14T20:57:47.497Z,17.08
2022-10-14T21:00:14.497Z,17.06
2022-10-14T21:02:41.177Z,17.05
2022-10-14T21:05:08.055Z,17.05
2022-10-14T21:07:34.615Z,17.04
2022-10-14T21:10:01.192Z,17.01
2022-10-14T21:12:27.755Z,17.01
2022-10-14T21:14:54.261Z,16.99
2022-10-14T21:17:20.850Z,16.98
2022-10-14T21:19:48.756Z,16.93
2022-10-14T21:22:15.300Z,16.93
2022-10-14T21:24:41.900Z,16.88
2022-10-14T21:27:08.615Z,16.82
2022-10-14T21:29:35.165Z,16.82
2022-10-14T21:32:02.737Z,16.78
2022-10-14T21:34:30.289Z,16.76
2022-10-14T21:36:57.297Z,16.74
2022-10-14T21:39:26.768Z,16.70
2022-10-14T21:41:53.343Z,16.68
2022-10-14T21:44:21.034Z,16.64
2022-10-14T21:46:48.504Z,16.63
2022-10-14T21:49:15.441Z,16.60
2022-10-14T21:51:42.270Z,16.59
2022-10-14T21:54:12.293Z,16.57
2022-10-14T21:56:39.339Z,16.55
2022-10-14T21:59:06.697Z,16.53
2022-10-14T22:01:33.278Z,16.51
2022-10-14T22:04:04.520Z,16.49
2022-10-14T22:06:32.150Z,16.46
2022-10-14T22:08:59.926Z,16.45
2022-10-14T22:11:38.031Z,16.44
2022-10-14T22:14:08.574Z,16.42
2022-10-14T22:16:35.519Z,16.41
2022-10-14T22:19:03.071Z,16.40
2022-10-14T22:21:31.022Z,16.40
2022-10-14T22:23:58.613Z,16.38
2022-10-14T22:26:26.282Z,16.37
2022-10-14T22:29:14.174Z,16.35
2022-10-14T22:31:40.918Z,16.35
2022-10-14T22:34:08.064Z,16.34
2022-10-14T22:36:35.009Z,16.33
2022-10-14T22:39:04.607Z,16.31
2022-10-14T22:41:35.191Z,16.30
2022-10-14T22:44:04.306Z,16.29
2022-10-14T22:46:32.641Z,16.28
2022-10-14T22:48:59.338Z,16.26
2022-10-14T22:51:35.027Z,16.24
2022-10-14T22:54:01.694Z,16.23
2022-10-14T22:56:29.516Z,16.23
2022-10-14T22:58:57.891Z,16.21
2022-10-14T23:01:27.536Z,16.20
2022-10-14T23:03:55.460Z,16.17
2022-10-14T23:06:21.910Z,16.18
2022-10-14T23:08:48.326Z,16.17
2022-10-14T23:11:16.812Z,16.16
2022-10-14T23:13:43.646Z,16.15
2022-10-14T23:16:15.660Z,16.15
2022-10-14T23:21:24.404Z,16.13
2022-10-14T23:23:51.896Z,16.13
2022-10-14T23:26:23.668Z,16.14
2022-10-14T23:28:57.689Z,16.13
2022-10-14T23:31:26.240Z,16.12
2022-10-14T23:33:53.136Z,16.10
2022-10-14T23:36:20.493Z,16.11
2022-10-14T23:38:46.951Z,16.11
2022-10-14T23:41:14.218Z,16.11
2022-10-14T23:43:41.132Z,16.10
2022-10-14T23:46:07.840Z,16.08
2022-10-14T23:48:34.556Z,16.10
2022-10-14T23:51:01.227Z,16.10
2022-10-14T23:53:28.200Z,16.10
2022-10-14T23:55:56.033Z,16.11
2022-10-14T23:58:23.032Z,16.08
